TKY85 BIAR-ENSB
Flight info
| Callsign | TKY85 |
|---|---|
| Flight time | 2h 22m |
| Altitude | 39000 |
| Route | UTISU DCT 70N012W 75N000E DCT INPAR |
| Aircraft | B736/M-SDE2E3FGHIRWXY/LB1 |
Departure
| Time | 2026-05-09 17:39 |
|---|---|
| Airport | Akureyri International Airport (BIAR) |
Arrival
| Time | 2026-05-09 20:01 |
|---|---|
| Airport | Svalbard Airport, Longyear (ENSB) |
| Time | Latitude | Longitude | Altitude | Speed | Heading |
|---|---|---|---|---|---|
| 2026-05-09 16:11 | 65.65425 | -18.07484 | 20 ft | 0 kts | 354° |
| 2026-05-09 16:16 | 65.65424 | -18.07486 | 20 ft | 0 kts | 354° |
| 2026-05-09 16:16 | 65.65425 | -18.07484 | 20 ft | 0 kts | 354° |
| 2026-05-09 17:35 | 65.65477 | -18.07392 | 20 ft | 0 kts | 78° |
| 2026-05-09 17:36 | 65.65478 | -18.07372 | 20 ft | 5 kts | 83° |
| 2026-05-09 17:36 | 65.65471 | -18.07191 | 22 ft | 14 kts | 135° |
| 2026-05-09 17:37 | 65.65337 | -18.07143 | 20 ft | 26 kts | 178° |
| 2026-05-09 17:37 | 65.65124 | -18.07104 | 23 ft | 33 kts | 176° |
| 2026-05-09 17:37 | 65.64901 | -18.07062 | 21 ft | 31 kts | 176° |
| 2026-05-09 17:37 | 65.64694 | -18.07023 | 21 ft | 29 kts | 175° |
| 2026-05-09 17:38 | 65.64530 | -18.07003 | 23 ft | 16 kts | 191° |
| 2026-05-09 17:38 | 65.64479 | -18.06968 | 21 ft | 8 kts | 46° |
| 2026-05-09 17:38 | 65.64530 | -18.06991 | 21 ft | 5 kts | 356° |
| 2026-05-09 17:39 | 65.64588 | -18.07001 | 21 ft | 34 kts | 355° |
| 2026-05-09 17:39 | 65.65059 | -18.07091 | 21 ft | 99 kts | 355° |
| 2026-05-09 17:39 | 65.65921 | -18.07246 | 75 ft | 141 kts | 354° |
| 2026-05-09 17:39 | 65.66899 | -18.07463 | 639 ft | 140 kts | 353° |
| 2026-05-09 17:40 | 65.67893 | -18.07729 | 1126 ft | 144 kts | 354° |
| 2026-05-09 17:40 | 65.68880 | -18.07997 | 1739 ft | 145 kts | 354° |
| 2026-05-09 17:40 | 65.69962 | -18.08293 | 2115 ft | 170 kts | 353° |
| 2026-05-09 17:40 | 65.71240 | -18.08647 | 2445 ft | 198 kts | 353° |
| 2026-05-09 17:41 | 65.72698 | -18.09056 | 2677 ft | 224 kts | 353° |
| 2026-05-09 17:41 | 65.74312 | -18.09514 | 3039 ft | 246 kts | 353° |
| 2026-05-09 17:41 | 65.76042 | -18.10008 | 3748 ft | 253 kts | 353° |
| 2026-05-09 17:41 | 65.77811 | -18.10518 | 4515 ft | 257 kts | 352° |
| 2026-05-09 17:42 | 65.79602 | -18.11037 | 5335 ft | 260 kts | 351° |
| 2026-05-09 17:42 | 65.81401 | -18.11557 | 6237 ft | 260 kts | 350° |
| 2026-05-09 17:42 | 65.83208 | -18.11217 | 7142 ft | 268 kts | 16° |
| 2026-05-09 17:42 | 65.84768 | -18.08636 | 8003 ft | 281 kts | 46° |
| 2026-05-09 17:43 | 65.85661 | -18.04316 | 8909 ft | 291 kts | 69° |
| 2026-05-09 17:43 | 65.85958 | -18.01088 | 9496 ft | 298 kts | 78° |
| 2026-05-09 17:43 | 65.86174 | -17.95980 | 10349 ft | 305 kts | 82° |
| 2026-05-09 17:43 | 65.86334 | -17.90665 | 10820 ft | 326 kts | 82° |
| 2026-05-09 17:44 | 65.86503 | -17.84922 | 11078 ft | 351 kts | 82° |
| 2026-05-09 17:44 | 65.86691 | -17.78855 | 11749 ft | 361 kts | 82° |
| 2026-05-09 17:44 | 65.86892 | -17.72675 | 12508 ft | 367 kts | 81° |
| 2026-05-09 17:44 | 65.87103 | -17.66422 | 13364 ft | 371 kts | 81° |
| 2026-05-09 17:45 | 65.87324 | -17.60076 | 14180 ft | 377 kts | 80° |
| 2026-05-09 17:45 | 65.87548 | -17.53633 | 14898 ft | 383 kts | 80° |
| 2026-05-09 17:45 | 65.87771 | -17.47098 | 15674 ft | 388 kts | 80° |
| 2026-05-09 17:45 | 65.88215 | -17.40710 | 16408 ft | 383 kts | 63° |
| 2026-05-09 17:46 | 65.89508 | -17.35178 | 17233 ft | 370 kts | 42° |
| 2026-05-09 17:46 | 65.91366 | -17.30972 | 18117 ft | 359 kts | 26° |
| 2026-05-09 17:46 | 65.93547 | -17.28141 | 18935 ft | 354 kts | 17° |
| 2026-05-09 17:46 | 65.95799 | -17.25695 | 19682 ft | 355 kts | 15° |
| 2026-05-09 17:47 | 65.98076 | -17.23321 | 20442 ft | 356 kts | 14° |
| 2026-05-09 17:47 | 66.00369 | -17.20944 | 21186 ft | 359 kts | 14° |
| 2026-05-09 17:47 | 66.02673 | -17.18537 | 21915 ft | 361 kts | 14° |
| 2026-05-09 17:47 | 66.04995 | -17.16087 | 22658 ft | 364 kts | 14° |
| 2026-05-09 17:48 | 66.07327 | -17.13603 | 23379 ft | 367 kts | 14° |
| 2026-05-09 17:48 | 66.09681 | -17.11076 | 24063 ft | 370 kts | 14° |
| 2026-05-09 17:48 | 66.12019 | -17.08551 | 24659 ft | 372 kts | 14° |
| 2026-05-09 17:48 | 66.14429 | -17.05935 | 25274 ft | 375 kts | 14° |
| 2026-05-09 17:49 | 66.16797 | -17.03358 | 25856 ft | 378 kts | 14° |
| 2026-05-09 17:49 | 66.19214 | -17.00719 | 26430 ft | 380 kts | 14° |
| 2026-05-09 17:49 | 66.21645 | -16.98058 | 26992 ft | 383 kts | 13° |
| 2026-05-09 17:49 | 66.24096 | -16.95369 | 27537 ft | 385 kts | 13° |
| 2026-05-09 17:50 | 66.26556 | -16.92665 | 28066 ft | 388 kts | 13° |
| 2026-05-09 17:50 | 66.31501 | -16.87210 | 29095 ft | 393 kts | 13° |
| 2026-05-09 17:50 | 66.34014 | -16.84431 | 29551 ft | 397 kts | 13° |
| 2026-05-09 17:51 | 66.36559 | -16.81609 | 30114 ft | 399 kts | 13° |
| 2026-05-09 17:51 | 66.39089 | -16.78789 | 30703 ft | 397 kts | 13° |
| 2026-05-09 17:51 | 66.41617 | -16.75966 | 31071 ft | 399 kts | 13° |
| 2026-05-09 17:51 | 66.44164 | -16.73124 | 31382 ft | 403 kts | 13° |
| 2026-05-09 17:52 | 66.46727 | -16.70257 | 31794 ft | 403 kts | 13° |
| 2026-05-09 17:52 | 66.49252 | -16.67420 | 32260 ft | 402 kts | 13° |
| 2026-05-09 17:52 | 66.51797 | -16.64550 | 32724 ft | 401 kts | 13° |
| 2026-05-09 17:52 | 66.54346 | -16.61674 | 33119 ft | 401 kts | 13° |
| 2026-05-09 17:53 | 66.56895 | -16.58796 | 33520 ft | 401 kts | 13° |
| 2026-05-09 17:53 | 66.59442 | -16.55912 | 33933 ft | 401 kts | 13° |
| 2026-05-09 17:53 | 66.61986 | -16.53025 | 34336 ft | 400 kts | 13° |
| 2026-05-09 17:53 | 66.64527 | -16.50137 | 34612 ft | 401 kts | 13° |
| 2026-05-09 17:54 | 66.67085 | -16.47225 | 34836 ft | 404 kts | 13° |
| 2026-05-09 17:54 | 66.69617 | -16.44339 | 35088 ft | 406 kts | 13° |
| 2026-05-09 17:54 | 66.72203 | -16.41385 | 35250 ft | 409 kts | 14° |
| 2026-05-09 17:54 | 66.74810 | -16.38396 | 35519 ft | 410 kts | 14° |
| 2026-05-09 17:55 | 66.77413 | -16.35399 | 35810 ft | 410 kts | 14° |
| 2026-05-09 17:55 | 66.80014 | -16.32397 | 36051 ft | 411 kts | 14° |
| 2026-05-09 17:55 | 66.82631 | -16.29373 | 36254 ft | 413 kts | 15° |
| 2026-05-09 17:55 | 66.85250 | -16.26340 | 36517 ft | 416 kts | 15° |
| 2026-05-09 17:56 | 66.87896 | -16.23272 | 36664 ft | 419 kts | 15° |
| 2026-05-09 17:56 | 66.90512 | -16.20226 | 36926 ft | 419 kts | 16° |
| 2026-05-09 17:56 | 66.93159 | -16.17135 | 37199 ft | 418 kts | 16° |
| 2026-05-09 17:57 | 66.98477 | -16.10906 | 37613 ft | 421 kts | 17° |
| 2026-05-09 17:57 | 67.01147 | -16.07768 | 37859 ft | 422 kts | 17° |
| 2026-05-09 17:57 | 67.03819 | -16.04620 | 38074 ft | 422 kts | 17° |
| 2026-05-09 17:57 | 67.06490 | -16.01465 | 38279 ft | 423 kts | 17° |
| 2026-05-09 17:58 | 67.09176 | -15.98287 | 38480 ft | 424 kts | 17° |
| 2026-05-09 17:58 | 67.11824 | -15.95145 | 38695 ft | 425 kts | 17° |
| 2026-05-09 17:58 | 67.14509 | -15.91951 | 38904 ft | 425 kts | 18° |
| 2026-05-09 17:58 | 67.17196 | -15.88746 | 39074 ft | 426 kts | 18° |
| 2026-05-09 17:59 | 67.19886 | -15.85531 | 39238 ft | 426 kts | 18° |
| 2026-05-09 17:59 | 67.25301 | -15.79038 | 39262 ft | 429 kts | 18° |
| 2026-05-09 18:00 | 67.30696 | -15.72525 | 39284 ft | 425 kts | 18° |
| 2026-05-09 18:00 | 67.36050 | -15.66033 | 39281 ft | 423 kts | 18° |
| 2026-05-09 18:01 | 67.41350 | -15.59578 | 39268 ft | 422 kts | 18° |
| 2026-05-09 18:01 | 67.46661 | -15.53080 | 39273 ft | 422 kts | 18° |
| 2026-05-09 18:02 | 67.51992 | -15.46529 | 39270 ft | 423 kts | 18° |
| 2026-05-09 18:02 | 67.57297 | -15.39976 | 39268 ft | 425 kts | 18° |
| 2026-05-09 18:03 | 67.62668 | -15.33305 | 39256 ft | 427 kts | 19° |
| 2026-05-09 18:03 | 67.68065 | -15.26567 | 39255 ft | 430 kts | 19° |
| 2026-05-09 18:04 | 67.73444 | -15.19817 | 39254 ft | 431 kts | 19° |
| 2026-05-09 18:04 | 67.78870 | -15.12971 | 39277 ft | 433 kts | 19° |
| 2026-05-09 18:05 | 67.84318 | -15.06059 | 39269 ft | 435 kts | 19° |
| 2026-05-09 18:05 | 67.89798 | -14.99076 | 39248 ft | 436 kts | 19° |
| 2026-05-09 18:06 | 67.95276 | -14.92055 | 39238 ft | 436 kts | 19° |
| 2026-05-09 18:06 | 68.00750 | -14.85003 | 39225 ft | 436 kts | 20° |
| 2026-05-09 18:07 | 68.06182 | -14.77967 | 39225 ft | 435 kts | 20° |
| 2026-05-09 18:07 | 68.11627 | -14.70879 | 39225 ft | 435 kts | 20° |
| 2026-05-09 18:08 | 68.17067 | -14.63759 | 39218 ft | 434 kts | 20° |
| 2026-05-09 18:08 | 68.22484 | -14.56633 | 39239 ft | 433 kts | 20° |
| 2026-05-09 18:09 | 68.27894 | -14.49475 | 39245 ft | 434 kts | 20° |
| 2026-05-09 18:09 | 68.33313 | -14.42272 | 39229 ft | 434 kts | 20° |
| 2026-05-09 18:10 | 68.38708 | -14.35063 | 39220 ft | 435 kts | 20° |
| 2026-05-09 18:10 | 68.44132 | -14.27775 | 39220 ft | 435 kts | 20° |
| 2026-05-09 18:11 | 68.49560 | -14.20442 | 39225 ft | 436 kts | 20° |
| 2026-05-09 18:11 | 68.54998 | -14.13053 | 39221 ft | 436 kts | 21° |
| 2026-05-09 18:12 | 68.60439 | -14.05622 | 39216 ft | 437 kts | 21° |
| 2026-05-09 18:12 | 68.65884 | -13.98145 | 39224 ft | 438 kts | 21° |
| 2026-05-09 18:13 | 68.71329 | -13.90625 | 39225 ft | 438 kts | 21° |
| 2026-05-09 18:13 | 68.76781 | -13.83054 | 39231 ft | 439 kts | 21° |
| 2026-05-09 18:14 | 68.82210 | -13.75475 | 39215 ft | 439 kts | 21° |
| 2026-05-09 18:14 | 68.87671 | -13.67809 | 39227 ft | 440 kts | 21° |
| 2026-05-09 18:15 | 68.93123 | -13.60111 | 39216 ft | 439 kts | 21° |
| 2026-05-09 18:15 | 68.98578 | -13.52367 | 39211 ft | 439 kts | 21° |
| 2026-05-09 18:16 | 69.04021 | -13.44596 | 39222 ft | 439 kts | 22° |
| 2026-05-09 18:16 | 69.09434 | -13.36825 | 39221 ft | 439 kts | 22° |
| 2026-05-09 18:17 | 69.14869 | -13.28978 | 39212 ft | 439 kts | 22° |
| 2026-05-09 18:17 | 69.20296 | -13.21099 | 39220 ft | 439 kts | 22° |
| 2026-05-09 18:18 | 69.25733 | -13.13161 | 39225 ft | 440 kts | 22° |
| 2026-05-09 18:18 | 69.31166 | -13.05184 | 39211 ft | 440 kts | 22° |
| 2026-05-09 18:19 | 69.36570 | -12.97204 | 39210 ft | 441 kts | 22° |
| 2026-05-09 18:19 | 69.44738 | -12.85055 | 39213 ft | 442 kts | 23° |
| 2026-05-09 18:20 | 69.50181 | -12.76900 | 39203 ft | 442 kts | 23° |
| 2026-05-09 18:20 | 69.55593 | -12.68744 | 39200 ft | 443 kts | 23° |
| 2026-05-09 18:21 | 69.61042 | -12.60485 | 39200 ft | 443 kts | 23° |
| 2026-05-09 18:21 | 69.66491 | -12.52179 | 39200 ft | 443 kts | 23° |
| 2026-05-09 18:22 | 69.71938 | -12.43825 | 39202 ft | 444 kts | 24° |
| 2026-05-09 18:22 | 69.77397 | -12.35407 | 39204 ft | 445 kts | 24° |
| 2026-05-09 18:23 | 69.82874 | -12.26908 | 39195 ft | 445 kts | 24° |
| 2026-05-09 18:23 | 69.88305 | -12.18430 | 39182 ft | 446 kts | 24° |
| 2026-05-09 18:24 | 69.93772 | -12.09845 | 39180 ft | 446 kts | 24° |
| 2026-05-09 18:25 | 70.01961 | -11.96818 | 39177 ft | 447 kts | 25° |
| 2026-05-09 18:25 | 70.07314 | -11.87690 | 39173 ft | 447 kts | 26° |
| 2026-05-09 18:26 | 70.12673 | -11.78364 | 39171 ft | 447 kts | 26° |
| 2026-05-09 18:26 | 70.18033 | -11.69024 | 39173 ft | 447 kts | 26° |
| 2026-05-09 18:27 | 70.23399 | -11.59662 | 39166 ft | 447 kts | 26° |
| 2026-05-09 18:27 | 70.28728 | -11.50323 | 39159 ft | 447 kts | 27° |
| 2026-05-09 18:28 | 70.34081 | -11.40887 | 39160 ft | 447 kts | 27° |
| 2026-05-09 18:28 | 70.39422 | -11.31414 | 39157 ft | 447 kts | 27° |
| 2026-05-09 18:29 | 70.44765 | -11.21876 | 39156 ft | 447 kts | 27° |
| 2026-05-09 18:29 | 70.49200 | -11.13914 | 39158 ft | 447 kts | 27° |
| 2026-05-09 18:30 | 70.54528 | -11.04296 | 39157 ft | 447 kts | 27° |
| 2026-05-09 18:30 | 70.59857 | -10.94615 | 39173 ft | 447 kts | 27° |
| 2026-05-09 18:31 | 70.65149 | -10.84942 | 39156 ft | 448 kts | 27° |
| 2026-05-09 18:31 | 70.70472 | -10.75149 | 39143 ft | 448 kts | 28° |
| 2026-05-09 18:32 | 70.75789 | -10.65307 | 39138 ft | 448 kts | 28° |
| 2026-05-09 18:32 | 70.81105 | -10.55405 | 39128 ft | 448 kts | 28° |
| 2026-05-09 18:33 | 70.86418 | -10.45442 | 39124 ft | 448 kts | 28° |
| 2026-05-09 18:33 | 70.91726 | -10.35431 | 39122 ft | 448 kts | 28° |
| 2026-05-09 18:34 | 70.96995 | -10.25427 | 39120 ft | 448 kts | 28° |
| 2026-05-09 18:34 | 71.02297 | -10.15295 | 39105 ft | 448 kts | 28° |
| 2026-05-09 18:35 | 71.07602 | -10.05095 | 39124 ft | 449 kts | 29° |
| 2026-05-09 18:35 | 71.12859 | -9.94917 | 39106 ft | 449 kts | 30° |
| 2026-05-09 18:36 | 71.18144 | -9.84617 | 39081 ft | 449 kts | 28° |
| 2026-05-09 18:36 | 71.23428 | -9.74263 | 39080 ft | 449 kts | 29° |
| 2026-05-09 18:37 | 71.28695 | -9.63873 | 39078 ft | 448 kts | 28° |
| 2026-05-09 18:37 | 71.33955 | -9.53417 | 39070 ft | 448 kts | 28° |
| 2026-05-09 18:38 | 71.39210 | -9.42900 | 39071 ft | 448 kts | 30° |
| 2026-05-09 18:38 | 71.44460 | -9.32337 | 39066 ft | 448 kts | 28° |
| 2026-05-09 18:40 | 71.65380 | -8.89538 | 39044 ft | 448 kts | 29° |
| 2026-05-09 18:41 | 71.70605 | -8.78669 | 39020 ft | 449 kts | 29° |
| 2026-05-09 18:41 | 71.75798 | -8.67800 | 39029 ft | 449 kts | 29° |
| 2026-05-09 18:42 | 71.81016 | -8.56795 | 39020 ft | 449 kts | 30° |
| 2026-05-09 18:42 | 71.86240 | -8.45710 | 39021 ft | 450 kts | 32° |
| 2026-05-09 18:43 | 71.91455 | -8.34563 | 39010 ft | 450 kts | 31° |
| 2026-05-09 18:43 | 71.96632 | -8.23433 | 39027 ft | 450 kts | 31° |
| 2026-05-09 18:44 | 72.01845 | -8.12137 | 39014 ft | 452 kts | 32° |
| 2026-05-09 18:44 | 72.07073 | -8.00731 | 38997 ft | 453 kts | 32° |
| 2026-05-09 18:45 | 72.12301 | -7.89245 | 38998 ft | 454 kts | 32° |
| 2026-05-09 18:45 | 72.17540 | -7.77654 | 38996 ft | 455 kts | 32° |
| 2026-05-09 18:46 | 72.22771 | -7.66002 | 38997 ft | 455 kts | 32° |
| 2026-05-09 18:46 | 72.28007 | -7.54254 | 38986 ft | 456 kts | 32° |
| 2026-05-09 18:47 | 72.33202 | -7.42519 | 38986 ft | 455 kts | 32° |
| 2026-05-09 18:47 | 72.38414 | -7.30662 | 38986 ft | 455 kts | 33° |
| 2026-05-09 18:48 | 72.43634 | -7.18705 | 38986 ft | 455 kts | 33° |
| 2026-05-09 18:48 | 72.48835 | -7.06704 | 38990 ft | 455 kts | 33° |
| 2026-05-09 18:49 | 72.54029 | -6.94633 | 38986 ft | 455 kts | 33° |
| 2026-05-09 18:49 | 72.59216 | -6.82491 | 38990 ft | 455 kts | 33° |
| 2026-05-09 18:50 | 72.64364 | -6.70354 | 38986 ft | 455 kts | 34° |
| 2026-05-09 18:50 | 72.69542 | -6.58058 | 38979 ft | 455 kts | 34° |
| 2026-05-09 18:51 | 72.74713 | -6.45691 | 38989 ft | 455 kts | 34° |
| 2026-05-09 18:51 | 72.79847 | -6.33321 | 38990 ft | 455 kts | 34° |
| 2026-05-09 18:52 | 72.84997 | -6.20822 | 39001 ft | 455 kts | 34° |
| 2026-05-09 18:52 | 72.90141 | -6.08244 | 39003 ft | 456 kts | 34° |
| 2026-05-09 18:53 | 72.95282 | -5.95584 | 39000 ft | 456 kts | 34° |
| 2026-05-09 18:53 | 73.00382 | -5.82930 | 39000 ft | 456 kts | 35° |
| 2026-05-09 18:54 | 73.05515 | -5.70100 | 39008 ft | 456 kts | 35° |
| 2026-05-09 18:54 | 73.10637 | -5.57202 | 39003 ft | 456 kts | 35° |
| 2026-05-09 18:55 | 73.15751 | -5.44228 | 39006 ft | 456 kts | 35° |
| 2026-05-09 18:55 | 73.20825 | -5.31259 | 39009 ft | 456 kts | 35° |
| 2026-05-09 18:56 | 73.25915 | -5.18150 | 39015 ft | 456 kts | 35° |
| 2026-05-09 18:56 | 73.30996 | -5.04966 | 39026 ft | 456 kts | 36° |
| 2026-05-09 18:57 | 73.36072 | -4.91697 | 39021 ft | 456 kts | 35° |
| 2026-05-09 18:57 | 73.41143 | -4.78335 | 39021 ft | 456 kts | 36° |
| 2026-05-09 18:58 | 73.46202 | -4.64901 | 39024 ft | 456 kts | 36° |
| 2026-05-09 18:58 | 73.51219 | -4.51482 | 39029 ft | 456 kts | 36° |
| 2026-05-09 18:59 | 73.56272 | -4.37864 | 39023 ft | 457 kts | 36° |
| 2026-05-09 18:59 | 73.61323 | -4.24148 | 39033 ft | 456 kts | 36° |
| 2026-05-09 19:00 | 73.66348 | -4.10397 | 39030 ft | 456 kts | 36° |
| 2026-05-09 19:00 | 73.73838 | -3.89688 | 39039 ft | 456 kts | 36° |
| 2026-05-09 19:01 | 73.78842 | -3.75715 | 39047 ft | 456 kts | 36° |
| 2026-05-09 19:01 | 73.83834 | -3.61678 | 39044 ft | 456 kts | 37° |
| 2026-05-09 19:02 | 73.88786 | -3.47630 | 39043 ft | 455 kts | 38° |
| 2026-05-09 19:02 | 73.93747 | -3.33458 | 39046 ft | 455 kts | 37° |
| 2026-05-09 19:03 | 73.98705 | -3.19176 | 39055 ft | 455 kts | 38° |
| 2026-05-09 19:03 | 74.03656 | -3.04808 | 39058 ft | 455 kts | 38° |
| 2026-05-09 19:04 | 74.08596 | -2.90344 | 39063 ft | 456 kts | 38° |
| 2026-05-09 19:04 | 74.13532 | -2.75779 | 39061 ft | 456 kts | 38° |
| 2026-05-09 19:05 | 74.18431 | -2.61216 | 39059 ft | 456 kts | 38° |
| 2026-05-09 19:05 | 74.23350 | -2.46466 | 39068 ft | 456 kts | 38° |
| 2026-05-09 19:06 | 74.28263 | -2.31619 | 39071 ft | 457 kts | 38° |
| 2026-05-09 19:06 | 74.33169 | -2.16670 | 39073 ft | 457 kts | 38° |
| 2026-05-09 19:07 | 74.38041 | -2.01702 | 39084 ft | 457 kts | 38° |
| 2026-05-09 19:07 | 74.42930 | -1.86561 | 39089 ft | 457 kts | 38° |
| 2026-05-09 19:08 | 74.47810 | -1.71308 | 39082 ft | 457 kts | 39° |
| 2026-05-09 19:08 | 74.52674 | -1.55991 | 39102 ft | 457 kts | 39° |
| 2026-05-09 19:09 | 74.57526 | -1.40593 | 39097 ft | 457 kts | 39° |
| 2026-05-09 19:09 | 74.62359 | -1.25118 | 39100 ft | 456 kts | 39° |
| 2026-05-09 19:10 | 74.67157 | -1.09633 | 39114 ft | 456 kts | 39° |
| 2026-05-09 19:10 | 74.71967 | -0.93977 | 39116 ft | 456 kts | 39° |
| 2026-05-09 19:11 | 74.76764 | -0.78221 | 39117 ft | 456 kts | 39° |
| 2026-05-09 19:11 | 74.81548 | -0.62374 | 39125 ft | 456 kts | 39° |
| 2026-05-09 19:12 | 74.86324 | -0.46424 | 39127 ft | 456 kts | 40° |
| 2026-05-09 19:12 | 74.91063 | -0.30476 | 39130 ft | 455 kts | 40° |
| 2026-05-09 19:13 | 74.95816 | -0.14331 | 39129 ft | 455 kts | 40° |
| 2026-05-09 19:13 | 75.00556 | 0.01890 | 39135 ft | 456 kts | 40° |
| 2026-05-09 19:14 | 75.05416 | 0.17735 | 39133 ft | 456 kts | 38° |
| 2026-05-09 19:14 | 75.10301 | 0.33304 | 39141 ft | 457 kts | 38° |
| 2026-05-09 19:15 | 75.15209 | 0.49135 | 39145 ft | 457 kts | 39° |
| 2026-05-09 19:15 | 75.20096 | 0.65143 | 39146 ft | 458 kts | 39° |
| 2026-05-09 19:16 | 75.24935 | 0.81191 | 39162 ft | 458 kts | 39° |
| 2026-05-09 19:16 | 75.29799 | 0.97454 | 39160 ft | 458 kts | 39° |
| 2026-05-09 19:17 | 75.34652 | 1.13836 | 39160 ft | 458 kts | 39° |
| 2026-05-09 19:17 | 75.38676 | 1.27525 | 39178 ft | 458 kts | 39° |
| 2026-05-09 19:18 | 75.44288 | 1.46775 | 39181 ft | 458 kts | 40° |
| 2026-05-09 19:18 | 75.48294 | 1.60644 | 39171 ft | 458 kts | 40° |
| 2026-05-09 19:19 | 75.53883 | 1.80171 | 39195 ft | 458 kts | 40° |
| 2026-05-09 19:19 | 75.57869 | 1.94222 | 39195 ft | 458 kts | 41° |
| 2026-05-09 19:20 | 75.62656 | 2.11232 | 39195 ft | 459 kts | 41° |
| 2026-05-09 19:20 | 75.67431 | 2.28355 | 39204 ft | 459 kts | 41° |
| 2026-05-09 19:21 | 75.72168 | 2.45495 | 39205 ft | 459 kts | 41° |
| 2026-05-09 19:21 | 75.76926 | 2.62869 | 39206 ft | 459 kts | 41° |
| 2026-05-09 19:22 | 75.81667 | 2.80344 | 39216 ft | 459 kts | 41° |
| 2026-05-09 19:22 | 75.86365 | 2.97820 | 39217 ft | 459 kts | 42° |
| 2026-05-09 19:23 | 75.91078 | 3.15512 | 39228 ft | 459 kts | 41° |
| 2026-05-09 19:23 | 75.95750 | 3.33221 | 39231 ft | 459 kts | 42° |
| 2026-05-09 19:24 | 76.00436 | 3.51146 | 39231 ft | 459 kts | 43° |
| 2026-05-09 19:24 | 76.05112 | 3.69202 | 39236 ft | 459 kts | 43° |
| 2026-05-09 19:25 | 76.09741 | 3.87245 | 39241 ft | 459 kts | 43° |
| 2026-05-09 19:25 | 76.14390 | 4.05534 | 39246 ft | 459 kts | 43° |
| 2026-05-09 19:26 | 76.19020 | 4.23923 | 39247 ft | 459 kts | 43° |
| 2026-05-09 19:26 | 76.23633 | 4.42421 | 39251 ft | 459 kts | 43° |
| 2026-05-09 19:27 | 76.28209 | 4.60947 | 39250 ft | 458 kts | 43° |
| 2026-05-09 19:27 | 76.32798 | 4.79700 | 39254 ft | 458 kts | 43° |
| 2026-05-09 19:28 | 76.37367 | 4.98563 | 39259 ft | 458 kts | 44° |
| 2026-05-09 19:28 | 76.41925 | 5.17555 | 39258 ft | 459 kts | 44° |
| 2026-05-09 19:29 | 76.46471 | 5.36685 | 39272 ft | 459 kts | 44° |
| 2026-05-09 19:29 | 76.51003 | 5.55949 | 39266 ft | 459 kts | 44° |
| 2026-05-09 19:30 | 76.55494 | 5.75230 | 39268 ft | 459 kts | 44° |
| 2026-05-09 19:30 | 76.60007 | 5.94784 | 39275 ft | 459 kts | 44° |
| 2026-05-09 19:31 | 76.64501 | 6.14457 | 39275 ft | 459 kts | 45° |
| 2026-05-09 19:31 | 76.68943 | 6.34104 | 39274 ft | 459 kts | 45° |
| 2026-05-09 19:32 | 76.73399 | 6.54005 | 39278 ft | 459 kts | 45° |
| 2026-05-09 19:32 | 76.77846 | 6.74070 | 39282 ft | 459 kts | 45° |
| 2026-05-09 19:33 | 76.82252 | 6.94150 | 39281 ft | 459 kts | 46° |
| 2026-05-09 19:33 | 76.86665 | 7.14463 | 39281 ft | 459 kts | 46° |
| 2026-05-09 19:34 | 76.91057 | 7.34890 | 39283 ft | 459 kts | 46° |
| 2026-05-09 19:34 | 76.95446 | 7.55512 | 38744 ft | 466 kts | 46° |
| 2026-05-09 19:35 | 76.97663 | 7.66011 | 38088 ft | 464 kts | 46° |
| 2026-05-09 19:35 | 76.99834 | 7.76346 | 37407 ft | 463 kts | 47° |
| 2026-05-09 19:35 | 77.02022 | 7.86816 | 36724 ft | 462 kts | 47° |
| 2026-05-09 19:35 | 77.04204 | 7.97313 | 36026 ft | 461 kts | 47° |
| 2026-05-09 19:36 | 77.06381 | 8.07841 | 35417 ft | 459 kts | 47° |
| 2026-05-09 19:36 | 77.08541 | 8.18343 | 34854 ft | 456 kts | 48° |
| 2026-05-09 19:36 | 77.10677 | 8.28780 | 34329 ft | 452 kts | 48° |
| 2026-05-09 19:36 | 77.12769 | 8.39055 | 33699 ft | 449 kts | 47° |
| 2026-05-09 19:37 | 77.14859 | 8.49375 | 33139 ft | 444 kts | 47° |
| 2026-05-09 19:37 | 77.16921 | 8.59612 | 32611 ft | 439 kts | 47° |
| 2026-05-09 19:37 | 77.18957 | 8.69766 | 32101 ft | 434 kts | 48° |
| 2026-05-09 19:37 | 77.20967 | 8.79844 | 31606 ft | 429 kts | 48° |
| 2026-05-09 19:38 | 77.22932 | 8.89742 | 31124 ft | 425 kts | 48° |
| 2026-05-09 19:38 | 77.24897 | 8.99690 | 30645 ft | 422 kts | 48° |
| 2026-05-09 19:38 | 77.26849 | 9.09618 | 30126 ft | 418 kts | 48° |
| 2026-05-09 19:38 | 77.28771 | 9.19446 | 29558 ft | 414 kts | 48° |
| 2026-05-09 19:39 | 77.30674 | 9.29219 | 29054 ft | 409 kts | 48° |
| 2026-05-09 19:39 | 77.32530 | 9.38801 | 28567 ft | 404 kts | 48° |
| 2026-05-09 19:39 | 77.34375 | 9.48367 | 28085 ft | 400 kts | 49° |
| 2026-05-09 19:39 | 77.36202 | 9.57886 | 27604 ft | 396 kts | 49° |
| 2026-05-09 19:40 | 77.38003 | 9.67318 | 27124 ft | 392 kts | 49° |
| 2026-05-09 19:40 | 77.39789 | 9.76708 | 26656 ft | 389 kts | 49° |
| 2026-05-09 19:40 | 77.41535 | 9.85935 | 26210 ft | 386 kts | 49° |
| 2026-05-09 19:40 | 77.43284 | 9.95212 | 25754 ft | 383 kts | 49° |
| 2026-05-09 19:41 | 77.45015 | 10.04444 | 25298 ft | 380 kts | 49° |
| 2026-05-09 19:41 | 77.46733 | 10.13646 | 24843 ft | 377 kts | 49° |
| 2026-05-09 19:41 | 77.48439 | 10.22821 | 24406 ft | 375 kts | 49° |
| 2026-05-09 19:41 | 77.50131 | 10.31965 | 23964 ft | 373 kts | 50° |
| 2026-05-09 19:42 | 77.51809 | 10.41075 | 23443 ft | 371 kts | 50° |
| 2026-05-09 19:42 | 77.53470 | 10.50134 | 22965 ft | 367 kts | 49° |
| 2026-05-09 19:42 | 77.55115 | 10.59145 | 22529 ft | 363 kts | 49° |
| 2026-05-09 19:42 | 77.56715 | 10.67944 | 22098 ft | 359 kts | 49° |
| 2026-05-09 19:43 | 77.58316 | 10.76788 | 21672 ft | 356 kts | 50° |
| 2026-05-09 19:43 | 77.59901 | 10.85586 | 21239 ft | 353 kts | 50° |
| 2026-05-09 19:43 | 77.61471 | 10.94333 | 20812 ft | 350 kts | 50° |
| 2026-05-09 19:43 | 77.63023 | 11.03019 | 20381 ft | 347 kts | 50° |
| 2026-05-09 19:44 | 77.64563 | 11.11675 | 19973 ft | 344 kts | 50° |
| 2026-05-09 19:44 | 77.66066 | 11.20152 | 19566 ft | 342 kts | 50° |
| 2026-05-09 19:44 | 77.67593 | 11.28804 | 19152 ft | 339 kts | 50° |
| 2026-05-09 19:44 | 77.69068 | 11.37201 | 18751 ft | 337 kts | 50° |
| 2026-05-09 19:45 | 77.70550 | 11.45667 | 18304 ft | 335 kts | 50° |
| 2026-05-09 19:45 | 77.72025 | 11.54132 | 17870 ft | 332 kts | 50° |
| 2026-05-09 19:45 | 77.73479 | 11.62510 | 17451 ft | 329 kts | 50° |
| 2026-05-09 19:45 | 77.74900 | 11.70729 | 17047 ft | 325 kts | 50° |
| 2026-05-09 19:46 | 77.76337 | 11.79077 | 16646 ft | 322 kts | 50° |
| 2026-05-09 19:46 | 77.77730 | 11.87197 | 16241 ft | 320 kts | 50° |
| 2026-05-09 19:46 | 77.79125 | 11.95363 | 15836 ft | 318 kts | 50° |
| 2026-05-09 19:46 | 77.80503 | 12.03468 | 15446 ft | 315 kts | 50° |
| 2026-05-09 19:47 | 77.81874 | 12.11559 | 15053 ft | 313 kts | 50° |
| 2026-05-09 19:47 | 77.83229 | 12.19585 | 14665 ft | 311 kts | 51° |
| 2026-05-09 19:47 | 77.84573 | 12.27576 | 14282 ft | 309 kts | 51° |
| 2026-05-09 19:47 | 77.85908 | 12.35546 | 13865 ft | 307 kts | 51° |
| 2026-05-09 19:48 | 77.87218 | 12.43398 | 13453 ft | 305 kts | 51° |
| 2026-05-09 19:48 | 77.88527 | 12.51274 | 13072 ft | 302 kts | 51° |
| 2026-05-09 19:48 | 77.89827 | 12.59123 | 12682 ft | 299 kts | 51° |
| 2026-05-09 19:48 | 77.91106 | 12.66879 | 12305 ft | 296 kts | 51° |
| 2026-05-09 19:49 | 77.92377 | 12.74613 | 11928 ft | 294 kts | 51° |
| 2026-05-09 19:49 | 77.93634 | 12.82292 | 11544 ft | 292 kts | 51° |
| 2026-05-09 19:49 | 77.94863 | 12.89824 | 11176 ft | 290 kts | 51° |
| 2026-05-09 19:49 | 77.96099 | 12.97427 | 10801 ft | 288 kts | 51° |
| 2026-05-09 19:50 | 77.97319 | 13.04965 | 10528 ft | 283 kts | 51° |
| 2026-05-09 19:50 | 77.98498 | 13.12274 | 10407 ft | 272 kts | 51° |
| 2026-05-09 19:50 | 77.99635 | 13.19344 | 10247 ft | 264 kts | 51° |
| 2026-05-09 19:50 | 78.00756 | 13.26334 | 9927 ft | 262 kts | 51° |
| 2026-05-09 19:51 | 78.01863 | 13.33238 | 9611 ft | 260 kts | 51° |
| 2026-05-09 19:51 | 78.02964 | 13.40147 | 9312 ft | 257 kts | 51° |
| 2026-05-09 19:51 | 78.04034 | 13.46896 | 9000 ft | 256 kts | 51° |
| 2026-05-09 19:51 | 78.05109 | 13.53700 | 8705 ft | 254 kts | 52° |
| 2026-05-09 19:52 | 78.06232 | 13.60221 | 8382 ft | 251 kts | 39° |
| 2026-05-09 19:52 | 78.07696 | 13.64629 | 8130 ft | 247 kts | 27° |
| 2026-05-09 19:52 | 78.09208 | 13.68567 | 7817 ft | 246 kts | 27° |
| 2026-05-09 19:52 | 78.10711 | 13.72510 | 7520 ft | 245 kts | 27° |
| 2026-05-09 19:53 | 78.12206 | 13.76469 | 7226 ft | 244 kts | 28° |
| 2026-05-09 19:53 | 78.13675 | 13.80392 | 6935 ft | 243 kts | 28° |
| 2026-05-09 19:53 | 78.15157 | 13.84379 | 6638 ft | 243 kts | 29° |
| 2026-05-09 19:53 | 78.16629 | 13.88359 | 6332 ft | 242 kts | 29° |
| 2026-05-09 19:54 | 78.18095 | 13.92334 | 6048 ft | 240 kts | 29° |
| 2026-05-09 19:54 | 78.19551 | 13.96301 | 5685 ft | 241 kts | 29° |
| 2026-05-09 19:54 | 78.21033 | 14.00361 | 5352 ft | 241 kts | 29° |
| 2026-05-09 19:54 | 78.22482 | 14.04341 | 5169 ft | 235 kts | 29° |
| 2026-05-09 19:55 | 78.23885 | 14.08213 | 5042 ft | 227 kts | 30° |
| 2026-05-09 19:55 | 78.25189 | 14.12327 | 4945 ft | 218 kts | 34° |
| 2026-05-09 19:55 | 78.26417 | 14.16458 | 4834 ft | 210 kts | 34° |
| 2026-05-09 19:56 | 78.28733 | 14.24249 | 4621 ft | 197 kts | 34° |
| 2026-05-09 19:56 | 78.29865 | 14.28151 | 4435 ft | 200 kts | 39° |
| 2026-05-09 19:56 | 78.30561 | 14.33928 | 4197 ft | 200 kts | 84° |
| 2026-05-09 19:56 | 78.30422 | 14.40698 | 4030 ft | 200 kts | 99° |
| 2026-05-09 19:57 | 78.30218 | 14.47536 | 3775 ft | 204 kts | 99° |
| 2026-05-09 19:57 | 78.29930 | 14.54408 | 3541 ft | 205 kts | 104° |
| 2026-05-09 19:57 | 78.29562 | 14.61091 | 3302 ft | 204 kts | 106° |
| 2026-05-09 19:57 | 78.29165 | 14.67802 | 3080 ft | 202 kts | 106° |
| 2026-05-09 19:58 | 78.28777 | 14.74349 | 2992 ft | 197 kts | 106° |
| 2026-05-09 19:58 | 78.28392 | 14.80856 | 2798 ft | 199 kts | 106° |
| 2026-05-09 19:58 | 78.28011 | 14.87359 | 2524 ft | 197 kts | 106° |
| 2026-05-09 19:58 | 78.27636 | 14.93776 | 2248 ft | 193 kts | 106° |
| 2026-05-09 19:59 | 78.27270 | 15.00064 | 1954 ft | 188 kts | 106° |
| 2026-05-09 19:59 | 78.26925 | 15.06023 | 1644 ft | 174 kts | 106° |
| 2026-05-09 19:59 | 78.26608 | 15.11504 | 1390 ft | 159 kts | 106° |
| 2026-05-09 19:59 | 78.26325 | 15.16426 | 1150 ft | 145 kts | 106° |
| 2026-05-09 20:00 | 78.26070 | 15.20879 | 977 ft | 129 kts | 106° |
| 2026-05-09 20:00 | 78.25831 | 15.25068 | 802 ft | 127 kts | 106° |
| 2026-05-09 20:00 | 78.25589 | 15.29249 | 638 ft | 127 kts | 107° |
| 2026-05-09 20:00 | 78.25346 | 15.33394 | 477 ft | 126 kts | 106° |
| 2026-05-09 20:01 | 78.25118 | 15.37542 | 283 ft | 126 kts | 104° |
| 2026-05-09 20:01 | 78.24888 | 15.41684 | 114 ft | 125 kts | 105° |
| 2026-05-09 20:01 | 78.24674 | 15.45465 | 89 ft | 97 kts | 104° |
| 2026-05-09 20:01 | 78.24557 | 15.47638 | 96 ft | 18 kts | 102° |
| 2026-05-09 20:02 | 78.24567 | 15.48085 | 98 ft | 12 kts | 42° |
| 2026-05-09 20:02 | 78.24589 | 15.48431 | 96 ft | 11 kts | 82° |
| 2026-05-09 20:02 | 78.24593 | 15.48554 | 95 ft | 0 kts | 78° |
| 2026-05-09 20:03 | 78.24598 | 15.48629 | 94 ft | 2 kts | 60° |
| 2026-05-09 20:03 | 78.24615 | 15.48716 | 95 ft | 4 kts | 32° |
| 2026-05-09 20:03 | 78.24640 | 15.48632 | 94 ft | 5 kts | 291° |
| 2026-05-09 20:03 | 78.24658 | 15.48494 | 95 ft | 5 kts | 342° |
| 2026-05-09 20:04 | 78.24679 | 15.48607 | 96 ft | 6 kts | 103° |
| 2026-05-09 20:04 | 78.24678 | 15.48625 | 96 ft | 0 kts | 105° |